Time;durP1;ratioP1;P1;durP2;ratioP2;P2;SDS_P1;SDS_P2;PMS_P1;PMS_P2;Temp;Humidity;BMP_temperature;BMP_pressure;BME280_temperature;BME280_humidity;BME280_pressure;Samples;Min_cycle;Max_cycle;Signal;HPM_P1;HPM_P2
2022/01/14 00:00:35;;;;;;;;;63.50;44.00;;;;;2.75;87.27;103540.56;5058295;28;45537;-72
2022/01/14 00:03:01;;;;;;;;;53.50;38.75;;;;;2.80;87.51;103546.81;5054287;28;45422;-72
2022/01/14 00:05:26;;;;;;;;;43.50;38.00;;;;;2.79;87.39;103539.84;5049346;28;45503;-72
2022/01/14 00:07:51;;;;;;;;;52.67;43.33;;;;;2.74;87.47;103525.81;5056308;28;45526;-72
2022/01/14 00:10:17;;;;;;;;;54.00;44.67;;;;;2.82;87.35;103552.06;5055213;28;46455;-71
2022/01/14 00:12:51;;;;;;;;;65.75;46.50;;;;;2.80;87.32;103540.72;5057159;28;46078;-72
2022/01/14 00:15:27;;;;;;;;;58.00;45.00;;;;;2.77;87.35;103538.94;5058736;28;45411;-72
2022/01/14 00:17:54;;;;;;;;;57.00;40.50;;;;;2.70;87.33;103526.53;5058315;28;45506;-72
2022/01/14 00:20:21;;;;;;;;;54.75;41.25;;;;;2.68;87.18;103520.44;5037615;28;45440;-72
2022/01/14 00:22:46;;;;;;;;;49.75;39.50;;;;;2.74;87.07;103538.81;5070988;28;45351;-71
2022/01/14 00:33:09;;;;;;;;;59.00;45.75;;;;;2.66;87.45;103531.56;5065781;28;46139;-72
2022/01/14 00:35:43;;;;;;;;;51.25;42.50;;;;;2.64;87.39;103528.94;5055753;28;45569;-72
2022/01/14 00:38:13;;;;;;;;;50.50;43.25;;;;;2.64;87.55;103543.63;5053257;28;45537;-72
2022/01/14 00:40:39;;;;;;;;;49.50;40.25;;;;;2.61;87.78;103540.13;5041259;28;45608;-72
2022/01/14 00:43:05;;;;;;;;;59.00;44.00;;;;;2.59;87.53;103535.69;5058039;28;45522;-72
2022/01/14 00:45:31;;;;;;;;;58.25;44.50;;;;;2.57;87.91;103537.34;5058444;28;45407;-72
2022/01/14 00:47:56;;;;;;;;;50.75;41.25;;;;;2.48;87.98;103517.13;5053480;28;45439;-72
2022/01/14 00:50:22;;;;;;;;;58.67;46.67;;;;;2.52;87.57;103523.34;5053545;28;45306;-72
2022/01/14 00:52:48;;;;;;;;;48.75;41.25;;;;;2.54;87.52;103526.84;5055957;28;45373;-71
2022/01/14 00:55:16;;;;;;;;;47.50;41.75;;;;;2.54;87.82;103526.84;5059359;28;45573;-72
2022/01/14 01:00:27;;;;;;;;;46.75;40.75;;;;;2.49;87.78;103524.09;5053443;28;45349;-72
2022/01/14 01:02:53;;;;;;;;;57.00;44.50;;;;;2.52;87.75;103533.72;5053468;28;46200;-72
2022/01/14 01:05:19;;;;;;;;;41.50;38.00;;;;;2.49;87.56;103518.91;5036285;28;45628;-72
2022/01/14 01:07:55;;;;;;;;;60.00;43.25;;;;;2.50;87.37;103523.25;5055345;28;45438;-72
2022/01/14 01:10:23;;;;;;;;;49.50;40.25;;;;;2.46;87.68;103513.63;5061998;28;45635;-72
2022/01/14 01:12:55;;;;;;;;;51.50;40.00;;;;;2.52;87.71;103515.53;5050703;28;46258;-72
2022/01/14 01:15:21;;;;;;;;;48.25;41.25;;;;;2.50;87.53;103527.56;5053087;28;45600;-72
2022/01/14 01:17:47;;;;;;;;;44.50;41.25;;;;;2.50;87.79;103540.53;5053461;28;45638;-72
2022/01/14 01:20:17;;;;;;;;;41.00;33.25;;;;;2.43;87.44;103539.47;5053150;28;45557;-72
2022/01/14 01:22:45;;;;;;;;;43.75;37.25;;;;;2.48;87.63;103543.09;5055156;28;45998;-72
2022/01/14 01:25:12;;;;;;;;;49.75;42.75;;;;;2.47;87.76;103540.47;5059446;28;45375;-72
2022/01/14 01:27:40;;;;;;;;;54.50;42.50;;;;;2.46;87.90;103544.78;5058620;28;45469;-72
2022/01/14 01:30:27;;;;;;;;;49.75;41.25;;;;;2.47;87.39;103537.88;5048984;28;45530;-72
2022/01/14 01:32:52;;;;;;;;;45.00;38.00;;;;;2.42;88.03;103532.50;5052902;28;46027;-72
2022/01/14 01:35:18;;;;;;;;;45.50;43.00;;;;;2.43;87.54;103535.97;5052835;28;45432;-72
2022/01/14 01:37:43;;;;;;;;;55.00;39.75;;;;;2.43;87.40;103533.38;5054890;28;45362;-72
2022/01/14 01:40:09;;;;;;;;;40.50;36.00;;;;;2.41;87.74;103535.94;5053408;28;45319;-72
2022/01/14 01:42:35;;;;;;;;;48.25;35.25;;;;;2.41;87.46;103527.28;5052681;28;46300;-72
2022/01/14 01:45:06;;;;;;;;;47.75;39.50;;;;;2.38;87.73;103530.63;5052641;28;45243;-72
2022/01/14 01:47:31;;;;;;;;;42.50;35.00;;;;;2.38;87.52;103537.53;5043064;28;45412;-72
2022/01/14 01:49:57;;;;;;;;;42.50;34.00;;;;;2.34;87.51;103532.22;5053747;28;45596;-72
2022/01/14 01:52:22;;;;;;;;;47.50;37.50;;;;;2.32;87.53;103536.47;5061198;28;47230;-72
2022/01/14 01:54:48;;;;;;;;;46.75;40.25;;;;;2.24;87.55;103527.53;5058668;28;45502;-72
2022/01/14 01:57:13;;;;;;;;;44.25;36.50;;;;;2.28;87.45;103539.78;5058542;28;45477;-72
2022/01/14 01:59:38;;;;;;;;;46.25;35.50;;;;;2.27;87.93;103540.63;5047971;28;45530;-72
2022/01/14 02:02:04;;;;;;;;;54.33;40.00;;;;;2.20;87.96;103519.59;5052988;28;48359;-72
2022/01/14 02:04:30;;;;;;;;;51.25;35.00;;;;;2.26;87.76;103530.19;5053858;28;45410;-72
2022/01/14 02:06:56;;;;;;;;;45.25;39.25;;;;;2.25;87.84;103534.50;5049594;28;45335;-72
2022/01/14 02:09:22;;;;;;;;;40.75;38.50;;;;;2.22;87.92;103521.41;5052535;28;45958;-72
2022/01/14 02:11:48;;;;;;;;;37.75;29.00;;;;;2.20;87.86;103514.41;5052535;28;45403;-71
2022/01/14 02:14:28;;;;;;;;;53.00;37.75;;;;;2.21;87.83;103517.06;5052346;28;45302;-72
2022/01/14 02:17:15;;;;;;;;;47.25;37.25;;;;;2.26;87.91;103525.00;5050670;28;45414;-72
2022/01/14 02:22:50;;;;;;;;;43.00;38.50;;;;;2.17;87.92;103499.59;5041598;28;45479;-72
2022/01/14 02:25:27;;;;;;;;;37.50;32.25;;;;;2.24;87.80;103508.47;5053073;28;45526;-71
2022/01/14 02:27:54;;;;;;;;;43.75;35.00;;;;;2.23;87.65;103501.53;5049162;28;45327;-72
2022/01/14 02:30:19;;;;;;;;;50.00;40.00;;;;;2.21;87.49;103509.25;5052145;28;45411;-72
2022/01/14 02:32:44;;;;;;;;;40.00;38.75;;;;;2.13;87.35;103499.44;5050657;28;47280;-71
2022/01/14 02:35:10;;;;;;;;;57.00;40.00;;;;;2.20;88.07;103509.22;5050658;28;57991;-71
2022/01/14 02:37:35;;;;;;;;;47.50;39.75;;;;;2.19;87.54;103513.50;5054290;28;45338;-71
2022/01/14 02:40:01;;;;;;;;;52.50;38.75;;;;;2.19;87.88;103513.50;5049958;28;45455;-71
2022/01/14 02:42:27;;;;;;;;;54.25;44.00;;;;;2.19;87.74;103508.31;5048860;28;45463;-71
2022/01/14 02:44:59;;;;;;;;;48.00;39.25;;;;;2.18;87.70;103503.94;5055624;28;45477;-71
2022/01/14 02:47:25;;;;;;;;;50.00;38.75;;;;;2.17;87.51;103497.00;5054428;28;45790;-71
2022/01/14 02:49:50;;;;;;;;;45.00;41.67;;;;;2.11;87.86;103491.59;5056929;28;56660;-72
2022/01/14 02:52:15;;;;;;;;;56.67;43.33;;;;;2.17;87.97;103494.41;5056244;28;45433;-71
2022/01/14 02:54:51;;;;;;;;;61.75;47.00;;;;;2.16;88.09;103486.59;5055069;28;45312;-71
2022/01/14 02:57:17;;;;;;;;;56.25;44.25;;;;;2.09;88.13;103472.53;5055678;28;45515;-71
2022/01/14 02:59:43;;;;;;;;;54.25;46.50;;;;;2.11;88.11;103469.97;5056568;28;45402;-71
2022/01/14 03:02:11;;;;;;;;;46.00;40.25;;;;;2.13;88.21;103471.78;5056256;28;46010;-72
2022/01/14 03:04:42;;;;;;;;;53.00;44.50;;;;;2.13;88.03;103466.59;5057649;28;45334;-72
2022/01/14 03:07:08;;;;;;;;;50.75;43.00;;;;;2.12;88.22;103464.81;5055400;28;45342;-71
2022/01/14 03:09:35;;;;;;;;;67.50;46.75;;;;;2.05;88.21;103453.34;5055457;28;45385;-71
2022/01/14 03:12:02;;;;;;;;;54.50;39.00;;;;;2.13;88.15;103473.50;5055313;28;45331;-71
2022/01/14 03:14:27;;;;;;;;;50.25;43.25;;;;;2.11;87.81;103465.66;5045446;28;45526;-71
2022/01/14 03:16:58;;;;;;;;;47.00;42.33;;;;;2.12;87.71;103464.81;5063259;28;45454;-71
2022/01/14 03:19:25;;;;;;;;;64.25;46.75;;;;;2.09;87.86;103451.78;5056751;28;45468;-71
2022/01/14 03:21:56;;;;;;;;;61.75;46.25;;;;;2.05;88.54;103448.16;5054616;28;45452;-71
2022/01/14 03:26:49;;;;;;;;;52.50;39.75;;;;;2.05;87.96;103447.28;5055592;28;45308;-71
2022/01/14 03:29:15;;;;;;;;;53.25;43.25;;;;;2.10;88.02;103456.13;5055170;28;45315;-71
2022/01/14 03:31:41;;;;;;;;;60.50;48.00;;;;;2.09;88.04;103463.03;5054651;28;45368;-71
2022/01/14 03:34:06;;;;;;;;;51.25;46.00;;;;;2.09;88.26;103452.66;5054744;28;45554;-71
2022/01/14 03:36:32;;;;;;;;;61.75;44.25;;;;;2.10;88.63;103450.94;5054888;28;45502;-71
2022/01/14 03:38:57;;;;;;;;;61.25;44.25;;;;;2.09;88.02;103450.06;5064807;28;45375;-71
2022/01/14 03:41:23;;;;;;;;;58.67;44.33;;;;;2.05;88.80;103437.78;5054819;28;47692;-71
2022/01/14 03:43:48;;;;;;;;;52.00;45.50;;;;;2.09;88.45;103454.34;5056867;28;45414;-71
2022/01/14 03:46:13;;;;;;;;;54.67;44.33;;;;;2.09;88.25;103450.06;5050404;28;45485;-71
2022/01/14 03:48:39;;;;;;;;;64.33;46.00;;;;;2.06;88.13;103452.53;5050529;28;45533;-71
2022/01/14 03:51:04;;;;;;;;;48.00;43.00;;;;;2.05;88.32;103452.47;5054251;28;55394;-71
2022/01/14 03:53:31;;;;;;;;;48.25;40.75;;;;;2.04;88.03;103451.59;5053447;28;45441;-71
2022/01/14 03:55:57;;;;;;;;;46.75;37.25;;;;;2.03;88.47;103443.75;5055965;28;45392;-71
2022/01/14 03:58:22;;;;;;;;;47.75;44.75;;;;;2.03;88.16;103448.94;5055111;28;45537;-71
2022/01/14 04:00:48;;;;;;;;;49.25;42.00;;;;;1.98;87.99;103442.69;5054253;28;46424;-71
2022/01/14 04:03:13;;;;;;;;;52.00;40.00;;;;;1.96;88.17;103437.47;5052134;28;57209;-71
2022/01/14 04:05:39;;;;;;;;;45.75;44.25;;;;;2.01;87.89;103443.69;5051550;28;45391;-71
2022/01/14 04:08:04;;;;;;;;;66.25;45.50;;;;;2.00;87.88;103446.25;5054873;28;45415;-71
2022/01/14 04:10:30;;;;;;;;;51.75;40.75;;;;;1.94;87.90;103439.13;5056094;28;46359;-71
2022/01/14 04:15:36;;;;;;;;;59.75;45.50;;;;;1.95;88.13;103438.28;5053964;28;45513;-72
2022/01/14 04:18:15;;;;;;;;;58.25;46.50;;;;;1.97;88.32;103444.41;5061501;28;45485;-71
2022/01/14 04:20:42;;;;;;;;;53.75;44.50;;;;;1.96;87.98;103431.41;5054116;28;46086;-71
2022/01/14 04:23:08;;;;;;;;;54.75;45.25;;;;;1.96;88.10;103436.56;5049988;28;45996;-71
2022/01/14 04:25:35;;;;;;;;;54.75;43.75;;;;;1.89;88.41;103432.91;5054572;28;45358;-71
2022/01/14 04:28:01;;;;;;;;;47.75;40.25;;;;;1.93;88.40;103442.56;5053760;28;45328;-71
2022/01/14 04:30:27;;;;;;;;;52.00;44.25;;;;;1.91;88.21;103435.53;5054245;28;46180;-71
2022/01/14 04:32:52;;;;;;;;;50.50;46.50;;;;;1.91;87.79;103435.53;5054225;28;45466;-71
2022/01/14 04:35:17;;;;;;;;;56.00;44.00;;;;;1.90;87.91;103431.19;5054211;28;45542;-71
2022/01/14 04:37:43;;;;;;;;;57.00;38.00;;;;;1.88;88.08;103441.50;5050037;28;45716;-71
2022/01/14 04:40:09;;;;;;;;;54.75;47.50;;;;;1.88;87.82;103436.31;5051552;28;45489;-71
2022/01/14 04:42:36;;;;;;;;;25.00;16.50;;;;;1.89;88.46;103426.81;5052337;28;45404;-71
2022/01/14 04:45:03;;;;;;;;;47.25;41.50;;;;;1.91;88.74;103420.84;5053843;28;45364;-71
2022/01/14 04:47:32;;;;;;;;;49.50;45.25;;;;;1.80;88.40;103397.13;5061504;28;45655;-71
2022/01/14 04:49:59;;;;;;;;;64.75;49.00;;;;;1.90;88.44;103420.81;5054763;28;45682;-71
2022/01/14 04:52:26;;;;;;;;;59.25;45.75;;;;;1.89;88.26;103422.53;5055082;28;45866;-71
2022/01/14 04:54:51;;;;;;;;;45.00;38.75;;;;;1.89;88.60;103419.03;5051753;28;45802;-71
2022/01/14 04:57:17;;;;;;;;;58.75;45.00;;;;;1.85;88.65;103405.06;5045547;28;45426;-71
2022/01/14 04:59:46;;;;;;;;;67.25;48.25;;;;;1.82;88.37;103405.84;5064692;28;48301;-71
2022/01/14 05:02:12;;;;;;;;;56.00;46.75;;;;;1.86;88.14;103404.25;5053933;28;45495;-71
2022/01/14 05:04:38;;;;;;;;;62.00;45.50;;;;;1.85;88.28;103405.06;5050332;28;45482;-71
2022/01/14 05:07:03;;;;;;;;;58.50;46.25;;;;;1.77;88.44;103389.22;5043520;28;45626;-71
2022/01/14 05:09:36;;;;;;;;;61.50;46.75;;;;;1.86;88.89;103406.84;5043176;28;45411;-71
2022/01/14 05:12:09;;;;;;;;;72.75;52.00;;;;;1.85;88.99;103396.41;5049862;28;47936;-71
2022/01/14 05:14:36;;;;;;;;;67.00;48.25;;;;;1.88;89.20;103401.69;5039854;28;45442;-71
2022/01/14 05:17:01;;;;;;;;;54.00;42.00;;;;;1.87;89.20;103402.53;5053667;28;45403;-71
2022/01/14 05:19:27;;;;;;;;;70.00;48.50;;;;;1.86;89.26;103403.38;5054717;28;46149;-71
2022/01/14 05:21:52;;;;;;;;;62.25;49.00;;;;;1.90;89.11;103416.50;5051217;28;45571;-71
2022/01/14 05:24:18;;;;;;;;;54.75;45.50;;;;;1.91;88.88;103414.78;5053307;28;45390;-71
2022/01/14 05:26:43;;;;;;;;;61.00;44.25;;;;;1.91;89.50;103414.78;5052964;28;45446;-71
2022/01/14 05:29:08;;;;;;;;;65.00;45.00;;;;;1.91;89.16;103404.41;5053129;28;45481;-71
2022/01/14 05:31:45;;;;;;;;;64.33;51.00;;;;;1.90;89.30;103410.44;5054910;28;49884;-71
2022/01/14 05:34:11;;;;;;;;;54.50;44.50;;;;;1.88;89.33;103406.88;5052864;28;45609;-71
2022/01/14 05:36:36;;;;;;;;;57.75;47.25;;;;;1.90;89.30;103407.84;5050691;28;45507;-71
2022/01/14 05:39:03;;;;;;;;;61.00;47.25;;;;;1.90;88.86;103410.44;5041060;28;45443;-71
2022/01/14 05:41:28;;;;;;;;;57.75;44.75;;;;;1.83;89.15;103405.03;5056359;28;45570;-71
2022/01/14 05:43:53;;;;;;;;;51.50;45.00;;;;;1.90;89.17;103420.81;5069089;27;45521;-71
2022/01/14 05:46:18;;;;;;;;;53.67;43.67;;;;;1.85;89.11;103415.44;5060216;28;54168;-71
2022/01/14 05:48:44;;;;;;;;;54.33;41.67;;;;;1.89;88.69;103419.03;5042146;28;46923;-71
2022/01/14 05:51:09;;;;;;;;;70.33;49.33;;;;;1.90;89.20;103432.06;5054948;28;45466;-71
2022/01/14 05:53:34;;;;;;;;;67.67;45.00;;;;;1.91;88.86;103440.72;5051049;28;49581;-71
2022/01/14 05:56:00;;;;;;;;;60.33;48.33;;;;;1.90;89.27;103445.03;5053038;28;48792;-71
2022/01/14 05:58:25;;;;;;;;;63.33;48.00;;;;;1.86;89.29;103431.88;5059825;28;53801;-71
2022/01/14 06:00:50;;;;;;;;;61.33;46.00;;;;;1.90;89.23;103438.97;5052414;28;48118;-71
2022/01/14 06:03:15;;;;;;;;;58.67;45.33;;;;;1.83;89.42;103430.97;5059117;28;53448;-71
2022/01/14 06:05:41;;;;;;;;;61.00;49.00;;;;;1.91;89.03;103438.13;5054764;28;45420;-71
2022/01/14 06:08:06;;;;;;;;;61.67;48.33;;;;;1.89;89.10;103440.66;5053968;28;54793;-72
2022/01/14 06:10:31;;;;;;;;;55.33;43.00;;;;;1.87;88.59;103429.34;5054414;28;45486;-72
2022/01/14 06:12:57;;;;;;;;;59.75;45.75;;;;;1.85;88.48;103432.72;5057515;28;46000;-71
2022/01/14 06:15:22;;;;;;;;;65.25;47.75;;;;;1.79;88.30;103429.06;5057327;28;45704;-71
2022/01/14 06:17:48;;;;;;;;;68.50;49.00;;;;;1.78;88.89;103418.66;5047388;28;46142;-72
2022/01/14 06:20:13;;;;;;;;;67.50;49.00;;;;;1.72;88.60;103414.13;5052894;28;49519;-71
2022/01/14 06:22:39;;;;;;;;;60.75;48.25;;;;;1.76;88.60;103423.78;5063641;28;45370;-71
2022/01/14 06:25:06;;;;;;;;;65.00;49.75;;;;;1.73;88.83;103423.69;5054478;28;45454;-72
2022/01/14 06:27:32;;;;;;;;;73.75;48.75;;;;;1.75;88.98;103421.13;5054291;28;45624;-72
2022/01/14 06:29:59;;;;;;;;;57.25;46.00;;;;;1.77;89.01;103430.72;5050403;28;45964;-72
2022/01/14 06:32:24;;;;;;;;;63.75;45.00;;;;;1.76;88.89;103438.44;5052495;28;45356;-71
2022/01/14 06:34:49;;;;;;;;;64.00;48.67;;;;;1.71;88.91;103424.44;5054186;28;45451;-71
2022/01/14 06:37:15;;;;;;;;;65.33;51.33;;;;;1.71;88.79;103424.44;5052239;28;48899;-72
2022/01/14 06:39:40;;;;;;;;;65.50;44.00;;;;;1.74;88.92;103421.97;5051715;28;45744;-72
2022/01/14 06:42:06;;;;;;;;;58.00;48.00;;;;;1.67;88.64;103413.09;5051986;28;52378;-72
2022/01/14 06:44:31;;;;;;;;;52.50;43.50;;;;;1.74;89.01;103420.25;5052235;28;45410;-71
2022/01/14 06:46:56;;;;;;;;;48.75;43.75;;;;;1.75;89.20;103429.78;5056838;28;46021;-71
2022/01/14 06:49:22;;;;;;;;;57.50;45.75;;;;;1.68;88.94;103413.97;5052081;28;45305;-72
2022/01/14 06:51:47;;;;;;;;;56.25;46.50;;;;;1.68;88.81;103414.84;5051945;28;45290;-71
2022/01/14 06:54:13;;;;;;;;;55.75;44.75;;;;;1.69;88.89;103415.72;5051816;28;45544;-71
2022/01/14 06:56:38;;;;;;;;;71.75;53.75;;;;;1.76;89.37;103426.38;5051893;28;45367;-71
2022/01/14 06:59:05;;;;;;;;;64.00;48.00;;;;;1.56;89.40;103383.28;5052888;28;45602;-71
2022/01/14 07:01:30;;;;;;;;;70.00;48.00;;;;;1.77;89.13;103422.94;5053755;28;45470;-71
2022/01/14 07:03:55;;;;;;;;;63.50;47.25;;;;;1.80;88.98;103432.56;5051877;28;45348;-71
2022/01/14 07:06:21;;;;;;;;;57.00;40.67;;;;;1.75;89.23;103415.94;5051621;28;46390;-71
2022/01/14 07:08:46;;;;;;;;;51.67;45.00;;;;;1.74;89.28;103404.69;5051427;28;45431;-72
2022/01/14 07:11:12;;;;;;;;;55.67;46.00;;;;;1.80;88.90;103415.28;5066710;28;45455;-72
2022/01/14 07:13:38;;;;;;;;;55.50;47.25;;;;;1.77;88.86;103409.97;5053781;28;45403;-72
2022/01/14 07:16:04;;;;;;;;;70.00;48.50;;;;;1.80;88.90;103409.22;5058505;28;46271;-72
2022/01/14 07:18:30;;;;;;;;;57.75;45.50;;;;;1.80;88.53;103406.63;5051889;28;45421;-71
2022/01/14 07:20:55;;;;;;;;;61.75;49.25;;;;;1.80;89.17;103410.09;5051833;28;45313;-71
2022/01/14 07:23:20;;;;;;;;;54.67;46.33;;;;;1.82;89.43;103408.44;5051247;28;53633;-71
2022/01/14 07:25:46;;;;;;;;;58.00;49.00;;;;;1.76;88.83;103396.97;5053343;28;53978;-71
2022/01/14 07:28:11;;;;;;;;;65.00;42.67;;;;;1.82;88.50;103404.94;5051694;28;52467;-71
2022/01/14 07:30:36;;;;;;;;;65.67;45.00;;;;;1.81;88.56;103396.31;5054748;28;46967;-71
2022/01/14 07:33:02;;;;;;;;;62.00;48.75;;;;;1.83;88.48;103404.16;5065188;28;45524;-71
2022/01/14 07:35:27;;;;;;;;;48.00;42.50;;;;;1.81;88.75;103406.66;5055421;28;45427;-72
2022/01/14 07:37:52;;;;;;;;;52.50;45.50;;;;;1.80;88.70;103402.31;5056171;28;45328;-71
2022/01/14 07:40:18;;;;;;;;;49.50;44.25;;;;;1.87;88.79;103405.13;5055590;28;45313;-71
2022/01/14 07:42:43;;;;;;;;;58.00;43.75;;;;;1.87;89.02;103411.19;5054858;28;45517;-71
2022/01/14 07:45:09;;;;;;;;;66.25;52.25;;;;;1.90;88.73;103410.44;5054515;28;45428;-70
2022/01/14 07:47:35;;;;;;;;;55.25;43.00;;;;;1.92;88.82;103408.75;5054915;28;46355;-70
2022/01/14 07:50:00;;;;;;;;;53.25;37.00;;;;;1.95;88.81;103403.69;5056228;28;45440;-70
2022/01/14 07:52:26;;;;;;;;;51.50;39.25;;;;;1.97;89.02;103410.69;5055875;28;45383;-70
2022/01/14 07:54:51;;;;;;;;;58.75;44.50;;;;;2.00;89.15;103413.41;5054557;28;45934;-70
2022/01/14 07:57:18;;;;;;;;;56.00;38.75;;;;;2.05;89.87;103417.03;5054530;28;45253;-70
2022/01/14 07:59:43;;;;;;;;;42.75;37.50;;;;;2.11;89.32;103420.69;5054796;28;45588;-70
2022/01/14 08:02:10;;;;;;;;;46.75;39.00;;;;;2.14;89.45;103419.09;5061464;28;45371;-70
2022/01/14 08:04:37;;;;;;;;;41.00;36.00;;;;;2.14;89.65;103406.13;5056540;28;46227;-70
2022/01/14 08:07:09;;;;;;;;;55.50;40.75;;;;;2.24;89.82;103421.13;5055846;28;45948;-70
2022/01/14 08:09:39;;;;;;;;;45.00;39.50;;;;;2.29;89.33;103426.50;5061577;28;45423;-70
2022/01/14 08:12:06;;;;;;;;;56.00;44.25;;;;;2.35;89.48;103431.91;5064403;28;45379;-70
2022/01/14 08:14:31;;;;;;;;;50.50;43.75;;;;;2.39;89.74;103423.38;5054377;28;45486;-70
2022/01/14 08:16:57;;;;;;;;;61.00;43.50;;;;;2.46;90.06;103424.50;5055986;28;45384;-70
2022/01/14 08:19:22;;;;;;;;;56.50;40.25;;;;;2.52;89.56;103419.50;5057186;28;45436;-70
2022/01/14 08:21:47;;;;;;;;;68.33;48.33;;;;;2.53;89.14;103413.47;5053710;28;45807;-70
2022/01/14 08:24:12;;;;;;;;;53.33;42.67;;;;;2.62;89.29;103426.75;5061675;28;45905;-70
2022/01/14 08:26:38;;;;;;;;;66.33;49.00;;;;;2.68;88.95;103426.97;5054200;28;45520;-70
2022/01/14 08:29:03;;;;;;;;;65.67;50.33;;;;;2.73;88.97;103430.59;5056976;28;54938;-70
2022/01/14 08:31:28;;;;;;;;;66.50;49.75;;;;;2.79;88.73;103425.59;5056149;28;45327;-70
2022/01/14 08:33:54;;;;;;;;;58.50;46.75;;;;;2.85;89.13;103428.38;5054948;28;45521;-70
2022/01/14 08:36:20;;;;;;;;;56.67;31.00;;;;;2.91;88.91;103427.69;5063710;28;45475;-70
2022/01/14 08:38:45;;;;;;;;;61.75;46.25;;;;;2.98;88.27;103436.59;5052293;28;45430;-70
2022/01/14 08:41:11;;;;;;;;;52.25;44.50;;;;;3.00;88.42;103427.09;5053915;28;45376;-70
2022/01/14 08:43:36;;;;;;;;;55.50;42.75;;;;;3.20;88.96;103427.72;5056164;28;47023;-70
2022/01/14 08:46:02;;;;;;;;;52.00;37.33;;;;;3.76;89.72;103421.59;5055910;28;54143;-71
2022/01/14 08:48:30;;;;;;;;;66.00;50.25;;;;;4.83;89.47;103426.13;5054016;28;45418;-72
2022/01/14 08:50:56;;;;;;;;;61.00;49.75;;;;;6.04;87.57;103421.78;5058268;28;45422;-71
2022/01/14 08:53:21;;;;;;;;;73.50;53.25;;;;;6.95;85.19;103424.22;5054189;28;46163;-71
2022/01/14 08:55:47;;;;;;;;;61.50;47.50;;;;;8.22;84.38;103420.56;5052522;28;45562;-71
2022/01/14 08:58:12;;;;;;;;;66.75;50.50;;;;;9.71;82.59;103419.81;5050700;28;45480;-71
2022/01/14 09:00:38;;;;;;;;;64.50;47.50;;;;;11.17;79.22;103408.53;5053310;28;45582;-71
2022/01/14 09:03:04;;;;;;;;;62.50;45.00;;;;;12.55;76.49;103406.03;5046604;28;47348;-71
2022/01/14 09:05:30;;;;;;;;;57.75;43.00;;;;;13.82;73.42;103407.28;5051633;28;45442;-70
2022/01/14 09:07:55;;;;;;;;;56.50;40.75;;;;;14.99;70.75;103415.09;5052105;28;45753;-70
2022/01/14 09:10:21;;;;;;;;;59.75;47.50;;;;;16.02;70.09;103395.28;5045476;28;45364;-71
2022/01/14 09:12:47;;;;;;;;;54.00;43.25;;;;;16.88;67.06;103385.19;5044758;28;46491;-71
2022/01/14 09:15:13;;;;;;;;;59.25;47.00;;;;;17.76;64.02;103402.16;5045161;28;45471;-71
2022/01/14 09:17:40;;;;;;;;;56.00;44.00;;;;;18.42;63.50;103392.91;5052247;28;45555;-71
2022/01/14 09:20:08;;;;;;;;;56.75;45.00;;;;;18.91;62.39;103392.13;5051991;28;45444;-71
2022/01/14 09:22:35;;;;;;;;;57.00;45.50;;;;;19.02;58.69;103391.72;5051846;28;45361;-70
2022/01/14 09:25:03;;;;;;;;;51.75;35.50;;;;;18.70;58.52;103390.22;5042272;28;45866;-70
2022/01/14 09:27:29;;;;;;;;;53.00;43.25;;;;;18.69;57.60;103397.34;5040076;28;45625;-71
2022/01/14 09:29:55;;;;;;;;;60.00;45.25;;;;;18.68;56.66;103397.38;5040239;28;45333;-71
2022/01/14 09:32:21;;;;;;;;;57.00;45.50;;;;;18.90;56.77;103406.38;5035286;28;46010;-71
2022/01/14 09:34:46;;;;;;;;;60.75;44.50;;;;;19.38;56.30;103383.28;5039432;28;45391;-71
2022/01/14 09:37:13;;;;;;;;;68.75;52.25;;;;;20.26;54.59;103394.94;5040747;28;45328;-71
2022/01/14 09:39:43;;;;;;;;;52.00;42.00;;;;;20.45;53.42;103392.34;5040158;28;45812;-71
2022/01/14 09:42:08;;;;;;;;;50.75;40.25;;;;;21.15;53.15;103386.63;5040951;28;46214;-70
2022/01/14 09:44:33;;;;;;;;;52.50;39.25;;;;;21.92;51.34;103396.38;5061919;28;45469;-71
2022/01/14 09:46:59;;;;;;;;;53.25;40.50;;;;;22.45;50.13;103392.88;5044895;28;45444;-71
2022/01/14 09:49:24;;;;;;;;;51.75;39.00;;;;;23.01;48.88;103399.78;5039987;28;45504;-70
2022/01/14 09:51:49;;;;;;;;;55.75;41.25;;;;;23.45;48.49;103392.03;5048020;28;46018;-71
2022/01/14 09:54:15;;;;;;;;;57.75;43.50;;;;;23.84;48.45;103390.75;5046997;28;45530;-70
2022/01/14 09:56:41;;;;;;;;;54.00;41.50;;;;;24.09;46.56;103387.53;5050252;28;45885;-70
2022/01/14 09:59:07;;;;;;;;;54.00;41.50;;;;;24.30;45.20;103393.47;5050829;28;47970;-71
2022/01/14 10:01:44;;;;;;;;;49.75;40.50;;;;;24.19;45.30;103407.53;5052235;28;47268;-71
2022/01/14 10:04:19;;;;;;;;;51.75;42.00;;;;;23.92;45.20;103405.50;5048160;28;45422;-70
2022/01/14 10:06:54;;;;;;;;;50.75;41.50;;;;;23.60;44.65;103409.97;5048410;28;45319;-70
2022/01/14 10:09:22;;;;;;;;;51.75;39.75;;;;;22.79;44.31;103416.13;5048405;28;45512;-71
2022/01/14 10:12:03;;;;;;;;;54.75;39.75;;;;;21.41;44.74;103417.53;5048918;28;45555;-71
2022/01/14 10:14:29;;;;;;;;;54.50;42.00;;;;;20.20;45.22;103420.09;5036035;28;45430;-71
2022/01/14 10:16:57;;;;;;;;;56.00;44.50;;;;;19.15;46.13;103429.47;5054452;28;45698;-71
2022/01/14 10:19:26;;;;;;;;;53.50;42.00;;;;;18.20;46.88;103419.38;5050013;28;45613;-70
2022/01/14 10:21:52;;;;;;;;;59.00;45.25;;;;;17.39;48.13;103416.53;5050734;28;46248;-70
2022/01/14 10:24:18;;;;;;;;;57.75;43.75;;;;;16.71;48.13;103417.50;5052509;28;45897;-71
2022/01/14 10:26:56;;;;;;;;;52.00;38.50;;;;;16.07;49.29;103419.91;5053120;28;45335;-70
2022/01/14 10:29:27;;;;;;;;;48.50;40.25;;;;;15.49;49.66;103423.81;5035502;28;45340;-70
2022/01/14 10:31:53;;;;;;;;;53.75;41.50;;;;;15.01;50.55;103417.72;5050137;28;46186;-69
2022/01/14 10:34:18;;;;;;;;;57.00;42.75;;;;;14.59;51.22;103413.16;5051334;28;45474;-71
2022/01/14 10:36:46;;;;;;;;;61.50;45.50;;;;;14.24;51.37;103404.88;5059068;28;49196;-70
2022/01/14 10:39:23;;;;;;;;;59.75;46.50;;;;;13.95;51.68;103415.94;5052278;28;45520;-70
2022/01/14 10:41:49;;;;;;;;;60.75;46.50;;;;;13.58;52.39;103425.22;5052103;28;46943;-70
2022/01/14 10:44:30;;;;;;;;;61.25;44.25;;;;;13.28;53.13;103415.88;5052301;28;45884;-70
2022/01/14 10:47:14;;;;;;;;;62.25;45.75;;;;;13.07;53.53;103418.75;5054490;28;45362;-71
2022/01/14 10:49:42;;;;;;;;;58.75;46.25;;;;;12.90;53.81;103421.56;5054022;28;45536;-70
2022/01/14 10:52:19;;;;;;;;;58.00;44.50;;;;;12.68;53.63;103412.06;5051894;28;45542;-70
2022/01/14 10:54:56;;;;;;;;;61.50;48.25;;;;;12.46;54.36;103406.13;5052083;28;45313;-70
2022/01/14 10:57:27;;;;;;;;;60.00;45.50;;;;;12.26;54.31;103404.50;5052011;28;45321;-70
2022/01/14 10:59:56;;;;;;;;;59.50;46.00;;;;;12.09;54.73;103401.13;5052131;28;45550;-70
2022/01/14 11:02:34;;;;;;;;;59.50;46.75;;;;;11.96;54.96;103388.91;5036799;28;45428;-70
2022/01/14 11:05:04;;;;;;;;;56.50;43.25;;;;;11.85;55.38;103393.34;5053919;28;45285;-70
2022/01/14 11:07:29;;;;;;;;;55.25;42.75;;;;;11.73;55.28;103381.97;5056958;28;45312;-71
2022/01/14 11:09:57;;;;;;;;;52.25;40.25;;;;;11.52;55.21;103371.53;5055494;28;45458;-70
2022/01/14 11:12:23;;;;;;;;;57.00;41.50;;;;;11.44;56.32;103382.13;5055207;28;45354;-71
2022/01/14 11:14:49;;;;;;;;;52.25;42.75;;;;;11.41;56.52;103376.88;5049959;28;45793;-70
2022/01/14 11:17:14;;;;;;;;;55.75;44.00;;;;;11.31;56.02;103376.91;5070280;27;46024;-70
2022/01/14 11:19:47;;;;;;;;;49.25;39.00;;;;;11.20;55.98;103385.72;5057344;28;45420;-70
2022/01/14 11:24:58;;;;;;;;;52.25;42.25;;;;;10.95;56.31;103382.28;5054548;28;45376;-70
2022/01/14 11:27:26;;;;;;;;;55.50;43.50;;;;;10.83;56.67;103377.03;5055277;28;45352;-70
2022/01/14 11:29:57;;;;;;;;;49.75;42.00;;;;;10.81;57.07;103373.56;5055045;28;45390;-70
2022/01/14 11:32:26;;;;;;;;;51.75;41.00;;;;;10.84;56.95;103367.41;5039579;28;46063;-70
2022/01/14 11:34:51;;;;;;;;;56.50;40.25;;;;;10.83;57.45;103360.38;5056861;28;45372;-72